sensor_id;sensor_type;location;lat;lon;timestamp;P1;durP1;ratioP1;P2;durP2;ratioP2
67065;SDS011;53978;43.846;25.952;2024-01-25T00:02:17;8.73;;;5.22;;
67065;SDS011;53978;43.846;25.952;2024-01-25T00:04:43;13.07;;;5.47;;
67065;SDS011;53978;43.846;25.952;2024-01-25T00:07:08;12.10;;;5.30;;
67065;SDS011;53978;43.846;25.952;2024-01-25T00:09:34;8.98;;;5.70;;
67065;SDS011;53978;43.846;25.952;2024-01-25T00:12:02;8.98;;;5.40;;
67065;SDS011;53978;43.846;25.952;2024-01-25T00:14:28;10.63;;;5.25;;
67065;SDS011;53978;43.846;25.952;2024-01-25T00:16:53;8.18;;;4.93;;
67065;SDS011;53978;43.846;25.952;2024-01-25T00:19:19;7.80;;;4.95;;
67065;SDS011;53978;43.846;25.952;2024-01-25T00:21:44;8.20;;;4.88;;
67065;SDS011;53978;43.846;25.952;2024-01-25T00:24:13;9.38;;;4.70;;
67065;SDS011;53978;43.846;25.952;2024-01-25T00:26:38;8.15;;;4.93;;
67065;SDS011;53978;43.846;25.952;2024-01-25T00:29:04;8.13;;;5.05;;
67065;SDS011;53978;43.846;25.952;2024-01-25T00:31:30;7.95;;;4.93;;
67065;SDS011;53978;43.846;25.952;2024-01-25T00:33:56;9.07;;;4.60;;
67065;SDS011;53978;43.846;25.952;2024-01-25T00:36:22;8.18;;;4.53;;
67065;SDS011;53978;43.846;25.952;2024-01-25T00:38:48;8.25;;;4.65;;
67065;SDS011;53978;43.846;25.952;2024-01-25T00:41:16;7.78;;;4.45;;
67065;SDS011;53978;43.846;25.952;2024-01-25T00:43:42;6.88;;;4.40;;
67065;SDS011;53978;43.846;25.952;2024-01-25T00:46:08;6.55;;;4.60;;
67065;SDS011;53978;43.846;25.952;2024-01-25T00:48:37;10.93;;;4.80;;
67065;SDS011;53978;43.846;25.952;2024-01-25T00:51:02;8.40;;;3.67;;
67065;SDS011;53978;43.846;25.952;2024-01-25T00:53:33;8.07;;;4.57;;
67065;SDS011;53978;43.846;25.952;2024-01-25T00:55:59;8.45;;;5.00;;
67065;SDS011;53978;43.846;25.952;2024-01-25T00:58:25;9.63;;;4.60;;
67065;SDS011;53978;43.846;25.952;2024-01-25T01:00:50;11.77;;;4.95;;
67065;SDS011;53978;43.846;25.952;2024-01-25T01:03:16;7.30;;;4.80;;
67065;SDS011;53978;43.846;25.952;2024-01-25T01:05:43;8.05;;;4.63;;
67065;SDS011;53978;43.846;25.952;2024-01-25T01:08:09;9.82;;;5.18;;
67065;SDS011;53978;43.846;25.952;2024-01-25T01:10:35;9.20;;;5.30;;
67065;SDS011;53978;43.846;25.952;2024-01-25T01:13:00;9.40;;;5.22;;
67065;SDS011;53978;43.846;25.952;2024-01-25T01:15:26;9.85;;;5.70;;
67065;SDS011;53978;43.846;25.952;2024-01-25T01:17:51;11.10;;;5.82;;
67065;SDS011;53978;43.846;25.952;2024-01-25T01:20:17;14.35;;;6.32;;
67065;SDS011;53978;43.846;25.952;2024-01-25T01:22:43;11.60;;;6.35;;
67065;SDS011;53978;43.846;25.952;2024-01-25T01:25:08;8.60;;;5.65;;
67065;SDS011;53978;43.846;25.952;2024-01-25T01:27:36;10.43;;;6.30;;
67065;SDS011;53978;43.846;25.952;2024-01-25T01:30:01;11.48;;;5.88;;
67065;SDS011;53978;43.846;25.952;2024-01-25T01:32:28;11.25;;;5.63;;
67065;SDS011;53978;43.846;25.952;2024-01-25T01:34:53;10.15;;;5.75;;
67065;SDS011;53978;43.846;25.952;2024-01-25T01:37:18;9.27;;;5.85;;
67065;SDS011;53978;43.846;25.952;2024-01-25T01:39:44;10.63;;;5.78;;
67065;SDS011;53978;43.846;25.952;2024-01-25T01:42:09;11.80;;;5.57;;
67065;SDS011;53978;43.846;25.952;2024-01-25T01:44:35;9.35;;;5.50;;
67065;SDS011;53978;43.846;25.952;2024-01-25T01:47:00;8.30;;;4.97;;
67065;SDS011;53978;43.846;25.952;2024-01-25T01:49:26;10.75;;;5.70;;
67065;SDS011;53978;43.846;25.952;2024-01-25T01:51:52;6.88;;;5.07;;
67065;SDS011;53978;43.846;25.952;2024-01-25T01:54:17;9.80;;;5.32;;
67065;SDS011;53978;43.846;25.952;2024-01-25T01:56:43;12.45;;;5.95;;
67065;SDS011;53978;43.846;25.952;2024-01-25T01:59:10;9.45;;;4.65;;
67065;SDS011;53978;43.846;25.952;2024-01-25T02:01:36;11.38;;;5.07;;
67065;SDS011;53978;43.846;25.952;2024-01-25T02:04:02;9.98;;;4.78;;
67065;SDS011;53978;43.846;25.952;2024-01-25T02:06:29;8.60;;;4.88;;
67065;SDS011;53978;43.846;25.952;2024-01-25T02:08:54;10.75;;;4.72;;
67065;SDS011;53978;43.846;25.952;2024-01-25T02:11:23;7.93;;;4.65;;
67065;SDS011;53978;43.846;25.952;2024-01-25T02:13:49;8.07;;;4.47;;
67065;SDS011;53978;43.846;25.952;2024-01-25T02:16:14;5.97;;;4.28;;
67065;SDS011;53978;43.846;25.952;2024-01-25T02:18:40;5.70;;;4.00;;
67065;SDS011;53978;43.846;25.952;2024-01-25T02:21:06;11.23;;;4.40;;
67065;SDS011;53978;43.846;25.952;2024-01-25T02:23:32;6.05;;;3.85;;
67065;SDS011;53978;43.846;25.952;2024-01-25T02:25:57;7.10;;;4.03;;
67065;SDS011;53978;43.846;25.952;2024-01-25T02:28:22;6.03;;;3.67;;
67065;SDS011;53978;43.846;25.952;2024-01-25T02:30:48;8.75;;;4.07;;
67065;SDS011;53978;43.846;25.952;2024-01-25T02:33:13;8.52;;;4.05;;
67065;SDS011;53978;43.846;25.952;2024-01-25T02:35:39;5.55;;;3.38;;
67065;SDS011;53978;43.846;25.952;2024-01-25T02:38:04;7.20;;;4.18;;
67065;SDS011;53978;43.846;25.952;2024-01-25T02:40:32;7.10;;;3.58;;
67065;SDS011;53978;43.846;25.952;2024-01-25T02:42:57;7.57;;;3.75;;
67065;SDS011;53978;43.846;25.952;2024-01-25T02:45:23;5.53;;;3.70;;
67065;SDS011;53978;43.846;25.952;2024-01-25T02:47:48;10.13;;;3.55;;
67065;SDS011;53978;43.846;25.952;2024-01-25T02:50:21;5.53;;;3.33;;
67065;SDS011;53978;43.846;25.952;2024-01-25T02:52:47;7.45;;;3.92;;
67065;SDS011;53978;43.846;25.952;2024-01-25T02:55:12;6.97;;;4.13;;
67065;SDS011;53978;43.846;25.952;2024-01-25T02:57:38;6.30;;;3.72;;
67065;SDS011;53978;43.846;25.952;2024-01-25T03:00:03;8.15;;;4.18;;
67065;SDS011;53978;43.846;25.952;2024-01-25T03:02:29;7.15;;;4.22;;
67065;SDS011;53978;43.846;25.952;2024-01-25T03:04:55;8.57;;;4.03;;
67065;SDS011;53978;43.846;25.952;2024-01-25T03:07:20;5.97;;;3.72;;
67065;SDS011;53978;43.846;25.952;2024-01-25T03:09:46;7.22;;;3.83;;
67065;SDS011;53978;43.846;25.952;2024-01-25T03:12:11;7.10;;;4.40;;
67065;SDS011;53978;43.846;25.952;2024-01-25T03:14:37;6.68;;;4.00;;
67065;SDS011;53978;43.846;25.952;2024-01-25T03:17:02;7.55;;;4.22;;
67065;SDS011;53978;43.846;25.952;2024-01-25T03:19:27;9.63;;;4.13;;
67065;SDS011;53978;43.846;25.952;2024-01-25T03:21:53;5.47;;;3.80;;
67065;SDS011;53978;43.846;25.952;2024-01-25T03:24:19;5.47;;;3.80;;
67065;SDS011;53978;43.846;25.952;2024-01-25T03:26:45;7.90;;;4.20;;
67065;SDS011;53978;43.846;25.952;2024-01-25T03:29:11;9.55;;;4.75;;
67065;SDS011;53978;43.846;25.952;2024-01-25T03:31:36;8.65;;;4.45;;
67065;SDS011;53978;43.846;25.952;2024-01-25T03:34:02;6.88;;;4.18;;
67065;SDS011;53978;43.846;25.952;2024-01-25T03:36:28;12.70;;;4.43;;
67065;SDS011;53978;43.846;25.952;2024-01-25T03:38:53;11.38;;;5.20;;
67065;SDS011;53978;43.846;25.952;2024-01-25T03:41:19;7.32;;;4.43;;
67065;SDS011;53978;43.846;25.952;2024-01-25T03:43:45;11.38;;;4.55;;
67065;SDS011;53978;43.846;25.952;2024-01-25T03:46:11;12.27;;;5.55;;
67065;SDS011;53978;43.846;25.952;2024-01-25T03:48:37;6.85;;;4.15;;
67065;SDS011;53978;43.846;25.952;2024-01-25T03:51:02;9.73;;;5.25;;
67065;SDS011;53978;43.846;25.952;2024-01-25T03:53:28;7.78;;;4.53;;
67065;SDS011;53978;43.846;25.952;2024-01-25T03:55:53;12.85;;;4.70;;
67065;SDS011;53978;43.846;25.952;2024-01-25T03:58:18;8.68;;;5.07;;
67065;SDS011;53978;43.846;25.952;2024-01-25T04:00:44;10.10;;;5.47;;
67065;SDS011;53978;43.846;25.952;2024-01-25T04:03:12;10.98;;;5.03;;
67065;SDS011;53978;43.846;25.952;2024-01-25T04:05:37;9.73;;;4.90;;
67065;SDS011;53978;43.846;25.952;2024-01-25T04:08:04;8.80;;;5.20;;
67065;SDS011;53978;43.846;25.952;2024-01-25T04:10:30;10.82;;;5.78;;
67065;SDS011;53978;43.846;25.952;2024-01-25T04:12:55;10.40;;;4.93;;
67065;SDS011;53978;43.846;25.952;2024-01-25T04:15:21;11.95;;;6.32;;
67065;SDS011;53978;43.846;25.952;2024-01-25T04:17:46;7.45;;;4.68;;
67065;SDS011;53978;43.846;25.952;2024-01-25T04:20:15;9.60;;;5.10;;
67065;SDS011;53978;43.846;25.952;2024-01-25T04:22:40;10.85;;;4.88;;
67065;SDS011;53978;43.846;25.952;2024-01-25T04:25:06;6.72;;;4.60;;
67065;SDS011;53978;43.846;25.952;2024-01-25T04:27:32;10.38;;;5.60;;
67065;SDS011;53978;43.846;25.952;2024-01-25T04:29:57;11.23;;;5.20;;
67065;SDS011;53978;43.846;25.952;2024-01-25T04:32:23;9.45;;;5.18;;
67065;SDS011;53978;43.846;25.952;2024-01-25T04:34:48;9.85;;;5.28;;
67065;SDS011;53978;43.846;25.952;2024-01-25T04:37:16;8.75;;;4.97;;
67065;SDS011;53978;43.846;25.952;2024-01-25T04:39:41;8.60;;;5.30;;
67065;SDS011;53978;43.846;25.952;2024-01-25T04:42:09;10.45;;;5.00;;
67065;SDS011;53978;43.846;25.952;2024-01-25T04:44:34;8.75;;;5.05;;
67065;SDS011;53978;43.846;25.952;2024-01-25T04:47:00;9.27;;;5.00;;
67065;SDS011;53978;43.846;25.952;2024-01-25T04:49:25;13.35;;;5.63;;
67065;SDS011;53978;43.846;25.952;2024-01-25T04:51:51;11.27;;;5.32;;
67065;SDS011;53978;43.846;25.952;2024-01-25T04:54:16;10.98;;;5.05;;
67065;SDS011;53978;43.846;25.952;2024-01-25T04:56:42;10.85;;;5.13;;
67065;SDS011;53978;43.846;25.952;2024-01-25T04:59:08;10.05;;;5.15;;
67065;SDS011;53978;43.846;25.952;2024-01-25T05:01:33;9.15;;;5.30;;
67065;SDS011;53978;43.846;25.952;2024-01-25T05:03:59;12.60;;;5.90;;
67065;SDS011;53978;43.846;25.952;2024-01-25T05:06:28;10.25;;;6.53;;
67065;SDS011;53978;43.846;25.952;2024-01-25T05:08:54;9.90;;;5.13;;
67065;SDS011;53978;43.846;25.952;2024-01-25T05:11:22;12.52;;;5.57;;
67065;SDS011;53978;43.846;25.952;2024-01-25T05:13:47;10.13;;;5.15;;
67065;SDS011;53978;43.846;25.952;2024-01-25T05:16:13;10.05;;;5.03;;
67065;SDS011;53978;43.846;25.952;2024-01-25T05:18:38;9.68;;;5.57;;
67065;SDS011;53978;43.846;25.952;2024-01-25T05:21:04;10.48;;;5.25;;
67065;SDS011;53978;43.846;25.952;2024-01-25T05:23:30;9.18;;;5.43;;
67065;SDS011;53978;43.846;25.952;2024-01-25T05:25:55;12.40;;;6.28;;
67065;SDS011;53978;43.846;25.952;2024-01-25T05:28:20;12.98;;;6.22;;
67065;SDS011;53978;43.846;25.952;2024-01-25T05:30:49;15.65;;;6.38;;
67065;SDS011;53978;43.846;25.952;2024-01-25T05:33:15;18.40;;;8.57;;
67065;SDS011;53978;43.846;25.952;2024-01-25T05:35:40;16.25;;;8.68;;
67065;SDS011;53978;43.846;25.952;2024-01-25T05:38:06;17.55;;;8.73;;
67065;SDS011;53978;43.846;25.952;2024-01-25T05:40:31;20.98;;;9.50;;
67065;SDS011;53978;43.846;25.952;2024-01-25T05:42:56;21.90;;;10.02;;
67065;SDS011;53978;43.846;25.952;2024-01-25T05:45:22;20.33;;;10.35;;
67065;SDS011;53978;43.846;25.952;2024-01-25T05:47:48;21.70;;;10.15;;
67065;SDS011;53978;43.846;25.952;2024-01-25T05:50:19;14.80;;;8.30;;
67065;SDS011;53978;43.846;25.952;2024-01-25T05:52:45;16.77;;;7.93;;
67065;SDS011;53978;43.846;25.952;2024-01-25T05:55:10;15.95;;;8.75;;
67065;SDS011;53978;43.846;25.952;2024-01-25T05:57:39;24.48;;;9.38;;
67065;SDS011;53978;43.846;25.952;2024-01-25T06:00:04;16.65;;;7.75;;
67065;SDS011;53978;43.846;25.952;2024-01-25T06:02:41;16.75;;;8.30;;
67065;SDS011;53978;43.846;25.952;2024-01-25T06:05:16;15.65;;;8.40;;
67065;SDS011;53978;43.846;25.952;2024-01-25T06:11:37;13.30;;;6.05;;
67065;SDS011;53978;43.846;25.952;2024-01-25T06:14:25;14.13;;;7.28;;
67065;SDS011;53978;43.846;25.952;2024-01-25T06:17:00;14.80;;;7.55;;
67065;SDS011;53978;43.846;25.952;2024-01-25T06:19:26;18.30;;;7.72;;
67065;SDS011;53978;43.846;25.952;2024-01-25T06:22:00;14.77;;;7.50;;
67065;SDS011;53978;43.846;25.952;2024-01-25T06:24:26;18.17;;;7.70;;
67065;SDS011;53978;43.846;25.952;2024-01-25T06:27:15;11.88;;;6.57;;
67065;SDS011;53978;43.846;25.952;2024-01-25T06:29:48;14.10;;;6.50;;
67065;SDS011;53978;43.846;25.952;2024-01-25T06:32:44;12.73;;;6.00;;
67065;SDS011;53978;43.846;25.952;2024-01-25T06:38:12;12.27;;;6.43;;
67065;SDS011;53978;43.846;25.952;2024-01-25T06:40:52;16.80;;;6.57;;
67065;SDS011;53978;43.846;25.952;2024-01-25T06:43:33;13.15;;;7.13;;
67065;SDS011;53978;43.846;25.952;2024-01-25T06:46:08;13.55;;;6.45;;
67065;SDS011;53978;43.846;25.952;2024-01-25T06:51:52;11.32;;;6.15;;
67065;SDS011;53978;43.846;25.952;2024-01-25T06:54:17;14.75;;;7.28;;
67065;SDS011;53978;43.846;25.952;2024-01-25T06:56:43;16.08;;;7.75;;
67065;SDS011;53978;43.846;25.952;2024-01-25T06:59:08;13.52;;;6.97;;
67065;SDS011;53978;43.846;25.952;2024-01-25T07:01:34;14.13;;;7.43;;
67065;SDS011;53978;43.846;25.952;2024-01-25T07:03:59;21.30;;;9.63;;
67065;SDS011;53978;43.846;25.952;2024-01-25T07:06:25;24.27;;;10.65;;
67065;SDS011;53978;43.846;25.952;2024-01-25T07:08:51;29.63;;;11.02;;
67065;SDS011;53978;43.846;25.952;2024-01-25T07:11:18;16.15;;;7.43;;
67065;SDS011;53978;43.846;25.952;2024-01-25T07:13:43;11.38;;;6.30;;
67065;SDS011;53978;43.846;25.952;2024-01-25T07:16:11;10.48;;;6.10;;
67065;SDS011;53978;43.846;25.952;2024-01-25T07:18:36;6.70;;;4.00;;
67065;SDS011;53978;43.846;25.952;2024-01-25T07:21:02;6.05;;;3.97;;
67065;SDS011;53978;43.846;25.952;2024-01-25T07:23:28;5.15;;;3.10;;
67065;SDS011;53978;43.846;25.952;2024-01-25T07:25:58;7.10;;;3.50;;
67065;SDS011;53978;43.846;25.952;2024-01-25T07:28:23;15.18;;;6.50;;
67065;SDS011;53978;43.846;25.952;2024-01-25T07:30:49;15.32;;;7.07;;
67065;SDS011;53978;43.846;25.952;2024-01-25T07:33:15;8.50;;;4.43;;
67065;SDS011;53978;43.846;25.952;2024-01-25T07:35:41;8.77;;;4.18;;
67065;SDS011;53978;43.846;25.952;2024-01-25T07:38:11;5.05;;;3.10;;
67065;SDS011;53978;43.846;25.952;2024-01-25T07:40:36;6.68;;;3.40;;
67065;SDS011;53978;43.846;25.952;2024-01-25T07:43:02;7.07;;;3.78;;
67065;SDS011;53978;43.846;25.952;2024-01-25T07:45:28;6.32;;;3.22;;
67065;SDS011;53978;43.846;25.952;2024-01-25T07:47:53;4.28;;;3.15;;
67065;SDS011;53978;43.846;25.952;2024-01-25T07:50:19;5.55;;;2.97;;
67065;SDS011;53978;43.846;25.952;2024-01-25T07:52:47;4.55;;;2.83;;
67065;SDS011;53978;43.846;25.952;2024-01-25T07:55:16;5.68;;;2.70;;
67065;SDS011;53978;43.846;25.952;2024-01-25T07:57:42;4.32;;;2.78;;
67065;SDS011;53978;43.846;25.952;2024-01-25T08:00:07;6.25;;;3.40;;
67065;SDS011;53978;43.846;25.952;2024-01-25T08:02:34;18.00;;;6.28;;
67065;SDS011;53978;43.846;25.952;2024-01-25T08:05:00;10.60;;;6.20;;
67065;SDS011;53978;43.846;25.952;2024-01-25T08:07:26;10.43;;;5.30;;
67065;SDS011;53978;43.846;25.952;2024-01-25T08:09:51;8.48;;;4.68;;
67065;SDS011;53978;43.846;25.952;2024-01-25T08:12:18;6.63;;;3.90;;
67065;SDS011;53978;43.846;25.952;2024-01-25T08:14:46;21.90;;;7.95;;
67065;SDS011;53978;43.846;25.952;2024-01-25T08:17:11;23.92;;;10.48;;
67065;SDS011;53978;43.846;25.952;2024-01-25T08:19:37;30.15;;;12.30;;
67065;SDS011;53978;43.846;25.952;2024-01-25T08:22:02;13.13;;;6.95;;
67065;SDS011;53978;43.846;25.952;2024-01-25T08:24:28;9.93;;;5.20;;
67065;SDS011;53978;43.846;25.952;2024-01-25T08:26:53;6.93;;;4.00;;
67065;SDS011;53978;43.846;25.952;2024-01-25T08:29:19;7.00;;;4.13;;
67065;SDS011;53978;43.846;25.952;2024-01-25T08:31:44;4.13;;;2.92;;
67065;SDS011;53978;43.846;25.952;2024-01-25T08:34:11;4.57;;;3.05;;
67065;SDS011;53978;43.846;25.952;2024-01-25T08:36:36;3.83;;;2.92;;
67065;SDS011;53978;43.846;25.952;2024-01-25T08:39:04;10.30;;;4.05;;
67065;SDS011;53978;43.846;25.952;2024-01-25T08:41:41;6.05;;;4.20;;
67065;SDS011;53978;43.846;25.952;2024-01-25T08:44:37;5.15;;;3.30;;
67065;SDS011;53978;43.846;25.952;2024-01-25T08:47:16;7.00;;;3.63;;
67065;SDS011;53978;43.846;25.952;2024-01-25T08:49:42;6.30;;;4.07;;
67065;SDS011;53978;43.846;25.952;2024-01-25T08:52:08;8.10;;;4.03;;
67065;SDS011;53978;43.846;25.952;2024-01-25T08:54:34;6.85;;;4.32;;
67065;SDS011;53978;43.846;25.952;2024-01-25T08:57:00;8.52;;;5.35;;
67065;SDS011;53978;43.846;25.952;2024-01-25T08:59:26;8.88;;;4.78;;
67065;SDS011;53978;43.846;25.952;2024-01-25T09:01:53;5.88;;;4.03;;
67065;SDS011;53978;43.846;25.952;2024-01-25T09:04:18;6.43;;;4.10;;
67065;SDS011;53978;43.846;25.952;2024-01-25T09:06:44;6.53;;;3.70;;
67065;SDS011;53978;43.846;25.952;2024-01-25T09:09:09;6.65;;;3.80;;
67065;SDS011;53978;43.846;25.952;2024-01-25T09:11:37;8.27;;;4.53;;
67065;SDS011;53978;43.846;25.952;2024-01-25T09:14:03;7.47;;;3.63;;
67065;SDS011;53978;43.846;25.952;2024-01-25T09:16:28;7.43;;;4.03;;
67065;SDS011;53978;43.846;25.952;2024-01-25T09:18:54;11.35;;;4.53;;
67065;SDS011;53978;43.846;25.952;2024-01-25T09:21:19;8.07;;;4.25;;
67065;SDS011;53978;43.846;25.952;2024-01-25T09:23:44;11.50;;;4.78;;
67065;SDS011;53978;43.846;25.952;2024-01-25T09:26:12;10.13;;;5.10;;
67065;SDS011;53978;43.846;25.952;2024-01-25T09:28:38;11.27;;;5.55;;
67065;SDS011;53978;43.846;25.952;2024-01-25T09:31:03;9.63;;;5.82;;
67065;SDS011;53978;43.846;25.952;2024-01-25T09:33:29;8.80;;;4.65;;
67065;SDS011;53978;43.846;25.952;2024-01-25T09:35:55;9.25;;;5.15;;
67065;SDS011;53978;43.846;25.952;2024-01-25T09:38:21;8.93;;;4.63;;
67065;SDS011;53978;43.846;25.952;2024-01-25T09:40:47;6.43;;;4.07;;
67065;SDS011;53978;43.846;25.952;2024-01-25T09:43:13;11.45;;;4.28;;
67065;SDS011;53978;43.846;25.952;2024-01-25T09:45:39;8.07;;;4.35;;
67065;SDS011;53978;43.846;25.952;2024-01-25T09:48:06;11.77;;;4.65;;
67065;SDS011;53978;43.846;25.952;2024-01-25T09:50:32;6.72;;;3.92;;
67065;SDS011;53978;43.846;25.952;2024-01-25T09:52:59;6.95;;;4.15;;
67065;SDS011;53978;43.846;25.952;2024-01-25T09:55:25;7.00;;;4.07;;
67065;SDS011;53978;43.846;25.952;2024-01-25T09:57:54;6.78;;;3.95;;
67065;SDS011;53978;43.846;25.952;2024-01-25T10:00:24;7.85;;;4.07;;
67065;SDS011;53978;43.846;25.952;2024-01-25T10:02:52;13.00;;;5.22;;
67065;SDS011;53978;43.846;25.952;2024-01-25T10:05:18;11.60;;;5.35;;
67065;SDS011;53978;43.846;25.952;2024-01-25T10:07:44;9.15;;;4.90;;
67065;SDS011;53978;43.846;25.952;2024-01-25T10:10:11;8.75;;;4.50;;
67065;SDS011;53978;43.846;25.952;2024-01-25T10:12:38;6.85;;;3.83;;
67065;SDS011;53978;43.846;25.952;2024-01-25T10:15:04;7.05;;;3.80;;
67065;SDS011;53978;43.846;25.952;2024-01-25T10:17:31;5.15;;;3.50;;
67065;SDS011;53978;43.846;25.952;2024-01-25T10:19:57;7.45;;;3.63;;
67065;SDS011;53978;43.846;25.952;2024-01-25T10:22:22;7.35;;;3.92;;
67065;SDS011;53978;43.846;25.952;2024-01-25T10:24:48;6.35;;;4.22;;
67065;SDS011;53978;43.846;25.952;2024-01-25T10:27:18;7.60;;;4.35;;
67065;SDS011;53978;43.846;25.952;2024-01-25T10:29:44;6.53;;;4.28;;
67065;SDS011;53978;43.846;25.952;2024-01-25T10:32:09;8.25;;;4.50;;
67065;SDS011;53978;43.846;25.952;2024-01-25T10:34:36;5.55;;;3.47;;
67065;SDS011;53978;43.846;25.952;2024-01-25T10:37:05;11.23;;;4.55;;
67065;SDS011;53978;43.846;25.952;2024-01-25T10:39:31;8.95;;;5.15;;
67065;SDS011;53978;43.846;25.952;2024-01-25T10:41:58;7.65;;;4.60;;
67065;SDS011;53978;43.846;25.952;2024-01-25T10:44:24;6.82;;;3.90;;
67065;SDS011;53978;43.846;25.952;2024-01-25T10:46:50;8.30;;;3.33;;
67065;SDS011;53978;43.846;25.952;2024-01-25T10:49:17;7.40;;;3.67;;
67065;SDS011;53978;43.846;25.952;2024-01-25T10:51:43;9.05;;;3.78;;
67065;SDS011;53978;43.846;25.952;2024-01-25T10:54:09;7.80;;;3.67;;
67065;SDS011;53978;43.846;25.952;2024-01-25T10:56:36;4.85;;;3.25;;
67065;SDS011;53978;43.846;25.952;2024-01-25T10:59:02;7.82;;;4.07;;
67065;SDS011;53978;43.846;25.952;2024-01-25T11:01:28;5.47;;;3.50;;
67065;SDS011;53978;43.846;25.952;2024-01-25T11:03:54;6.60;;;3.33;;
67065;SDS011;53978;43.846;25.952;2024-01-25T11:06:20;6.38;;;3.53;;
67065;SDS011;53978;43.846;25.952;2024-01-25T11:08:47;6.28;;;3.80;;
67065;SDS011;53978;43.846;25.952;2024-01-25T11:11:13;7.25;;;3.38;;
67065;SDS011;53978;43.846;25.952;2024-01-25T11:13:39;7.30;;;3.78;;
67065;SDS011;53978;43.846;25.952;2024-01-25T11:16:14;6.55;;;3.58;;
67065;SDS011;53978;43.846;25.952;2024-01-25T11:18:47;6.95;;;3.40;;
67065;SDS011;53978;43.846;25.952;2024-01-25T11:21:26;11.60;;;4.15;;
67065;SDS011;53978;43.846;25.952;2024-01-25T11:24:03;9.52;;;4.70;;
67065;SDS011;53978;43.846;25.952;2024-01-25T11:26:29;9.18;;;4.70;;
67065;SDS011;53978;43.846;25.952;2024-01-25T11:28:55;7.57;;;4.50;;
67065;SDS011;53978;43.846;25.952;2024-01-25T11:31:21;7.50;;;4.45;;
67065;SDS011;53978;43.846;25.952;2024-01-25T11:33:49;7.45;;;3.72;;
67065;SDS011;53978;43.846;25.952;2024-01-25T11:36:17;8.32;;;4.18;;
67065;SDS011;53978;43.846;25.952;2024-01-25T11:38:45;7.95;;;3.67;;
67065;SDS011;53978;43.846;25.952;2024-01-25T11:41:13;7.95;;;3.42;;
67065;SDS011;53978;43.846;25.952;2024-01-25T11:43:38;9.93;;;4.00;;
67065;SDS011;53978;43.846;25.952;2024-01-25T11:46:04;8.10;;;3.88;;
67065;SDS011;53978;43.846;25.952;2024-01-25T11:48:29;9.23;;;4.95;;
67065;SDS011;53978;43.846;25.952;2024-01-25T11:50:54;9.65;;;4.80;;
67065;SDS011;53978;43.846;25.952;2024-01-25T11:53:20;9.02;;;4.22;;
67065;SDS011;53978;43.846;25.952;2024-01-25T11:55:46;8.20;;;3.90;;
67065;SDS011;53978;43.846;25.952;2024-01-25T11:58:15;7.40;;;4.05;;
67065;SDS011;53978;43.846;25.952;2024-01-25T12:00:41;6.80;;;3.95;;
67065;SDS011;53978;43.846;25.952;2024-01-25T12:03:07;8.75;;;4.30;;
67065;SDS011;53978;43.846;25.952;2024-01-25T12:05:33;8.18;;;3.88;;
67065;SDS011;53978;43.846;25.952;2024-01-25T12:07:59;9.88;;;3.60;;
67065;SDS011;53978;43.846;25.952;2024-01-25T12:10:26;7.03;;;3.65;;
67065;SDS011;53978;43.846;25.952;2024-01-25T12:12:52;7.85;;;3.65;;
67065;SDS011;53978;43.846;25.952;2024-01-25T12:15:17;8.88;;;4.10;;
67065;SDS011;53978;43.846;25.952;2024-01-25T12:17:43;8.38;;;3.58;;
67065;SDS011;53978;43.846;25.952;2024-01-25T12:20:09;9.57;;;5.22;;
67065;SDS011;53978;43.846;25.952;2024-01-25T12:22:36;11.30;;;6.10;;
67065;SDS011;53978;43.846;25.952;2024-01-25T12:25:08;11.20;;;5.10;;
67065;SDS011;53978;43.846;25.952;2024-01-25T12:27:38;9.15;;;4.40;;
67065;SDS011;53978;43.846;25.952;2024-01-25T12:30:05;8.60;;;3.97;;
67065;SDS011;53978;43.846;25.952;2024-01-25T12:32:31;7.47;;;3.63;;
67065;SDS011;53978;43.846;25.952;2024-01-25T12:34:57;5.20;;;3.38;;
67065;SDS011;53978;43.846;25.952;2024-01-25T12:37:26;6.18;;;3.65;;
67065;SDS011;53978;43.846;25.952;2024-01-25T12:39:52;7.43;;;3.65;;
67065;SDS011;53978;43.846;25.952;2024-01-25T12:42:18;6.05;;;3.58;;
67065;SDS011;53978;43.846;25.952;2024-01-25T12:44:44;10.00;;;3.95;;
67065;SDS011;53978;43.846;25.952;2024-01-25T12:47:10;18.15;;;6.43;;
67065;SDS011;53978;43.846;25.952;2024-01-25T12:49:41;8.85;;;5.50;;
67065;SDS011;53978;43.846;25.952;2024-01-25T12:52:11;10.32;;;5.00;;
67065;SDS011;53978;43.846;25.952;2024-01-25T12:54:43;9.57;;;4.95;;
67065;SDS011;53978;43.846;25.952;2024-01-25T12:57:08;7.47;;;4.13;;
67065;SDS011;53978;43.846;25.952;2024-01-25T12:59:34;10.15;;;4.53;;
67065;SDS011;53978;43.846;25.952;2024-01-25T13:02:00;6.50;;;4.00;;
67065;SDS011;53978;43.846;25.952;2024-01-25T13:04:26;8.00;;;4.03;;
67065;SDS011;53978;43.846;25.952;2024-01-25T13:06:54;7.75;;;3.30;;
67065;SDS011;53978;43.846;25.952;2024-01-25T13:09:21;6.80;;;3.97;;
67065;SDS011;53978;43.846;25.952;2024-01-25T13:11:49;6.97;;;3.40;;
67065;SDS011;53978;43.846;25.952;2024-01-25T13:14:17;8.90;;;3.97;;
67065;SDS011;53978;43.846;25.952;2024-01-25T13:16:42;8.52;;;3.50;;
67065;SDS011;53978;43.846;25.952;2024-01-25T13:19:08;7.88;;;3.70;;
67065;SDS011;53978;43.846;25.952;2024-01-25T13:21:34;5.38;;;3.05;;
67065;SDS011;53978;43.846;25.952;2024-01-25T13:23:59;7.80;;;3.47;;
67065;SDS011;53978;43.846;25.952;2024-01-25T13:26:25;7.03;;;3.47;;
67065;SDS011;53978;43.846;25.952;2024-01-25T13:28:51;5.72;;;3.03;;
67065;SDS011;53978;43.846;25.952;2024-01-25T13:31:17;6.38;;;3.15;;
67065;SDS011;53978;43.846;25.952;2024-01-25T13:33:42;7.90;;;3.50;;
67065;SDS011;53978;43.846;25.952;2024-01-25T13:36:07;11.02;;;3.38;;
67065;SDS011;53978;43.846;25.952;2024-01-25T13:38:36;6.30;;;3.05;;
67065;SDS011;53978;43.846;25.952;2024-01-25T13:41:01;6.00;;;3.10;;
67065;SDS011;53978;43.846;25.952;2024-01-25T13:43:27;6.47;;;3.50;;
67065;SDS011;53978;43.846;25.952;2024-01-25T13:45:52;10.88;;;3.30;;
67065;SDS011;53978;43.846;25.952;2024-01-25T13:48:19;11.10;;;4.82;;
67065;SDS011;53978;43.846;25.952;2024-01-25T13:50:44;7.72;;;3.95;;
67065;SDS011;53978;43.846;25.952;2024-01-25T13:53:09;7.13;;;3.60;;
67065;SDS011;53978;43.846;25.952;2024-01-25T13:55:35;11.02;;;5.80;;
67065;SDS011;53978;43.846;25.952;2024-01-25T13:58:01;9.25;;;4.75;;
67065;SDS011;53978;43.846;25.952;2024-01-25T14:00:26;7.68;;;3.50;;
67065;SDS011;53978;43.846;25.952;2024-01-25T14:02:52;6.22;;;3.88;;
67065;SDS011;53978;43.846;25.952;2024-01-25T14:05:18;6.82;;;3.30;;
67065;SDS011;53978;43.846;25.952;2024-01-25T14:07:43;7.10;;;3.78;;
67065;SDS011;53978;43.846;25.952;2024-01-25T14:10:09;8.52;;;3.30;;
67065;SDS011;53978;43.846;25.952;2024-01-25T14:12:35;3.92;;;2.70;;
67065;SDS011;53978;43.846;25.952;2024-01-25T14:15:00;3.78;;;2.28;;
67065;SDS011;53978;43.846;25.952;2024-01-25T14:17:26;4.90;;;2.85;;
67065;SDS011;53978;43.846;25.952;2024-01-25T14:19:52;4.60;;;2.53;;
67065;SDS011;53978;43.846;25.952;2024-01-25T14:22:18;8.60;;;3.78;;
67065;SDS011;53978;43.846;25.952;2024-01-25T14:24:44;10.55;;;3.80;;
67065;SDS011;53978;43.846;25.952;2024-01-25T14:27:09;7.72;;;3.90;;
67065;SDS011;53978;43.846;25.952;2024-01-25T14:29:34;9.05;;;3.53;;
67065;SDS011;53978;43.846;25.952;2024-01-25T14:32:00;7.45;;;3.40;;
67065;SDS011;53978;43.846;25.952;2024-01-25T14:34:27;7.55;;;3.28;;
67065;SDS011;53978;43.846;25.952;2024-01-25T14:36:57;5.13;;;3.05;;
67065;SDS011;53978;43.846;25.952;2024-01-25T14:39:23;5.40;;;3.15;;